Time;durP1;ratioP1;P1;durP2;ratioP2;P2;SDS_P1;SDS_P2;PMS_P1;PMS_P2;Temp;Humidity;BMP_temperature;BMP_pressure;BME280_temperature;BME280_humidity;BME280_pressure;Samples;Min_cycle;Max_cycle;Signal;HPM_P1;HPM_P2
2022/05/30 00:00:42;;;;;;;2.47;1.70;;;12.30;99.90;;;;;;5019638;28;20201;-70
2022/05/30 00:03:10;;;;;;;2.88;2.00;;;12.30;99.90;;;;;;5038164;28;20189;-70
2022/05/30 00:05:37;;;;;;;4.63;1.92;;;12.30;99.90;;;;;;5039041;28;20225;-70
2022/05/30 00:08:03;;;;;;;2.50;1.55;;;12.30;99.90;;;;;;5056051;28;20323;-70
2022/05/30 00:10:31;;;;;;;2.13;1.70;;;12.40;99.90;;;;;;5056241;28;20222;-69
2022/05/30 00:12:57;;;;;;;2.45;2.25;;;12.40;99.90;;;;;;5055657;28;20170;-70
2022/05/30 00:15:29;;;;;;;2.47;1.90;;;12.40;99.90;;;;;;5039146;28;20234;-70
2022/05/30 00:17:56;;;;;;;3.78;1.90;;;12.40;99.90;;;;;;5055818;28;20207;-70
2022/05/30 00:20:23;;;;;;;4.32;2.30;;;12.40;99.90;;;;;;5055685;28;20172;-70
2022/05/30 00:22:48;;;;;;;4.35;2.00;;;12.40;99.90;;;;;;5040057;28;20219;-69
2022/05/30 00:25:14;;;;;;;2.58;2.00;;;12.40;99.90;;;;;;5055861;28;20205;-70
2022/05/30 00:27:40;;;;;;;3.97;2.08;;;12.40;99.90;;;;;;5055719;28;20227;-70
2022/05/30 00:30:06;;;;;;;2.70;2.00;;;12.40;99.90;;;;;;5038819;28;20174;-70
2022/05/30 00:32:34;;;;;;;3.17;1.95;;;12.40;99.90;;;;;;5038744;28;20194;-70
2022/05/30 00:35:02;;;;;;;4.15;2.60;;;12.40;99.90;;;;;;5038447;28;20184;-70
2022/05/30 00:37:28;;;;;;;2.22;2.03;;;12.40;99.90;;;;;;5038566;28;20547;-70
2022/05/30 00:39:54;;;;;;;2.55;2.22;;;12.40;99.90;;;;;;5038674;28;20212;-70
2022/05/30 00:42:23;;;;;;;2.30;1.90;;;12.40;99.90;;;;;;5038636;28;20184;-70
2022/05/30 00:44:49;;;;;;;3.85;2.30;;;12.40;99.90;;;;;;5038804;28;20264;-70
2022/05/30 00:47:18;;;;;;;2.45;2.00;;;12.40;99.90;;;;;;5038369;28;20208;-70
2022/05/30 00:49:46;;;;;;;3.22;1.70;;;12.40;99.90;;;;;;5022230;28;20329;-70
2022/05/30 00:52:35;;;;;;;2.45;2.00;;;12.40;99.90;;;;;;5035122;28;20185;-70
2022/05/30 00:55:15;;;;;;;2.38;1.75;;;12.40;99.90;;;;;;5051277;28;20189;-70
2022/05/30 00:57:43;;;;;;;2.90;1.95;;;12.40;99.90;;;;;;5038109;28;20214;-72
2022/05/30 01:00:13;;;;;;;4.38;1.98;;;12.40;99.90;;;;;;5037887;28;20211;-70
2022/05/30 01:02:40;;;;;;;2.13;1.90;;;12.40;99.90;;;;;;5055070;28;20184;-70
2022/05/30 01:07:58;;;;;;;2.58;2.20;;;12.40;99.90;;;;;;5055565;28;20184;-72
2022/05/30 01:10:26;;;;;;;3.97;2.30;;;12.30;99.90;;;;;;5037791;28;20174;-70
2022/05/30 01:12:59;;;;;;;2.50;1.90;;;12.30;99.90;;;;;;5038180;28;20219;-70
2022/05/30 01:15:28;;;;;;;4.80;2.47;;;12.30;99.90;;;;;;5037967;28;20173;-70
2022/05/30 01:18:15;;;;;;;3.63;2.40;;;12.30;99.90;;;;;;5025379;28;20317;-70
2022/05/30 01:20:49;;;;;;;2.83;2.33;;;12.20;99.90;;;;;;5018123;28;20174;-70
2022/05/30 01:23:55;;;;;;;5.70;2.22;;;12.20;99.90;;;;;;5018542;28;20336;-70
2022/05/30 01:27:00;;;;;;;2.88;2.03;;;12.10;99.90;;;;;;5023817;28;20213;-70
2022/05/30 01:29:29;;;;;;;3.28;1.92;;;12.20;99.90;;;;;;5014045;28;20237;-76
2022/05/30 01:31:56;;;;;;;4.50;2.47;;;12.10;99.90;;;;;;5029156;28;20268;-77
2022/05/30 01:34:28;;;;;;;4.43;2.20;;;12.10;99.90;;;;;;5053551;28;20173;-75
2022/05/30 01:36:56;;;;;;;3.42;2.20;;;12.10;99.90;;;;;;5028586;28;20188;-75
2022/05/30 01:39:22;;;;;;;2.85;2.10;;;12.10;99.90;;;;;;5053944;28;20189;-75
2022/05/30 01:41:50;;;;;;;3.38;2.05;;;12.10;99.90;;;;;;5032377;28;20197;-73
2022/05/30 01:44:15;;;;;;;2.22;1.75;;;12.00;99.90;;;;;;5033125;28;20319;-75
2022/05/30 01:46:41;;;;;;;2.72;1.70;;;12.10;99.90;;;;;;5022301;28;20300;-73
2022/05/30 01:49:07;;;;;;;2.05;1.85;;;12.10;99.90;;;;;;5018055;28;20170;-75
2022/05/30 01:51:33;;;;;;;3.07;1.90;;;12.10;99.90;;;;;;5018054;28;20166;-73
2022/05/30 01:53:59;;;;;;;3.72;2.20;;;12.00;99.90;;;;;;5035456;28;20184;-75
2022/05/30 01:56:27;;;;;;;3.55;2.70;;;12.00;99.90;;;;;;5031263;28;20212;-74
2022/05/30 01:58:53;;;;;;;5.22;2.22;;;12.00;99.90;;;;;;5017870;28;20200;-73
2022/05/30 02:01:24;;;;;;;3.30;2.00;;;12.00;99.90;;;;;;5037657;28;20197;-74
2022/05/30 02:03:54;;;;;;;3.00;1.80;;;11.90;99.90;;;;;;5036826;28;20193;-74
2022/05/30 02:06:21;;;;;;;3.33;1.93;;;11.90;99.90;;;;;;5038110;28;20270;-75
2022/05/30 02:08:48;;;;;;;3.67;2.10;;;11.80;99.90;;;;;;5054791;28;20173;-73
2022/05/30 02:11:16;;;;;;;2.83;2.20;;;11.80;99.90;;;;;;5054382;28;20197;-75
2022/05/30 02:13:42;;;;;;;3.83;2.03;;;11.80;99.90;;;;;;5035621;28;20208;-75
2022/05/30 02:18:57;;;;;;;4.20;1.83;;;11.70;99.90;;;;;;5038942;28;20200;-75
2022/05/30 02:21:26;;;;;;;3.10;2.17;;;11.60;99.90;;;;;;5025240;28;20197;-75
2022/05/30 02:23:52;;;;;;;3.40;1.97;;;11.60;99.90;;;;;;5041554;28;20196;-72
2022/05/30 02:26:18;;;;;;;2.73;2.10;;;11.50;99.90;;;;;;5041207;28;20205;-76
2022/05/30 02:28:44;;;;;;;4.93;2.10;;;11.50;99.90;;;;;;5030694;28;20182;-75
2022/05/30 02:31:10;;;;;;;2.30;2.10;;;11.50;99.90;;;;;;5022589;28;20174;-74
2022/05/30 02:36:44;;;;;;;2.40;2.00;;;11.40;99.90;;;;;;5041654;28;20185;-74
2022/05/30 02:39:32;;;;;;;2.10;1.60;;;11.40;99.90;;;;;;5029217;28;20178;-75
2022/05/30 02:41:57;;;;;;;3.43;1.90;;;11.30;99.90;;;;;;5021244;28;20243;-76
2022/05/30 02:44:26;;;;;;;2.60;1.80;;;11.30;99.90;;;;;;5052351;28;20181;-75
2022/05/30 02:46:55;;;;;;;2.57;1.77;;;11.30;99.90;;;;;;5040747;28;20197;-75
2022/05/30 02:49:23;;;;;;;2.87;1.83;;;11.20;99.90;;;;;;5039683;28;20173;-74
2022/05/30 02:51:50;;;;;;;2.40;2.00;;;11.20;99.90;;;;;;5021012;28;20166;-76
2022/05/30 02:54:16;;;;;;;1.90;1.60;;;11.20;99.90;;;;;;5031291;28;20440;-75
2022/05/30 02:56:47;;;;;;;1.97;1.77;;;11.10;99.90;;;;;;5057509;28;20173;-76
2022/05/30 02:59:15;;;;;;;2.40;1.60;;;11.10;99.90;;;;;;5037004;28;20177;-76
2022/05/30 03:01:43;;;;;;;2.93;1.70;;;11.00;99.90;;;;;;5032743;28;20249;-76
2022/05/30 03:04:09;;;;;;;2.40;2.00;;;11.00;99.90;;;;;;5039856;28;20235;-73
2022/05/30 03:06:35;;;;;;;2.20;1.80;;;11.00;99.90;;;;;;5057158;28;20205;-75
2022/05/30 03:09:02;;;;;;;2.60;1.77;;;10.90;99.90;;;;;;5056815;28;20185;-74
2022/05/30 03:11:27;;;;;;;3.37;2.00;;;10.90;99.90;;;;;;5056904;28;20165;-76
2022/05/30 03:13:55;;;;;;;2.73;1.90;;;10.90;99.90;;;;;;5035691;28;20349;-74
2022/05/30 03:16:21;;;;;;;5.70;1.87;;;10.90;99.90;;;;;;5039872;28;20188;-76
2022/05/30 03:18:46;;;;;;;2.40;1.73;;;10.90;99.90;;;;;;5036777;28;20210;-75
2022/05/30 03:21:12;;;;;;;2.90;2.00;;;10.90;99.90;;;;;;5037226;28;20188;-76
2022/05/30 03:23:41;;;;;;;2.60;2.00;;;10.90;99.90;;;;;;5054732;28;20212;-75
2022/05/30 03:26:07;;;;;;;3.07;2.20;;;10.80;99.90;;;;;;5056256;28;20205;-76
2022/05/30 03:28:34;;;;;;;3.70;2.40;;;10.80;99.90;;;;;;5040043;28;20247;-75
2022/05/30 03:31:03;;;;;;;3.57;2.10;;;10.80;99.90;;;;;;5020047;28;20162;-76
2022/05/30 03:33:29;;;;;;;6.00;2.30;;;10.80;99.90;;;;;;5034992;28;20264;-76
2022/05/30 03:35:55;;;;;;;2.60;2.20;;;10.70;99.90;;;;;;5036853;28;20249;-76
2022/05/30 03:38:21;;;;;;;4.13;2.50;;;10.70;99.90;;;;;;5020151;28;20174;-75
2022/05/30 03:40:47;;;;;;;3.90;2.37;;;10.70;99.90;;;;;;5034553;28;20173;-75
2022/05/30 03:43:13;;;;;;;3.20;2.30;;;10.70;99.90;;;;;;5039880;28;20170;-75
2022/05/30 03:45:43;;;;;;;3.43;2.20;;;10.60;99.90;;;;;;5039635;28;20268;-75
2022/05/30 03:48:14;;;;;;;5.37;2.40;;;10.60;99.90;;;;;;5039679;28;20193;-75
2022/05/30 03:50:42;;;;;;;5.30;2.60;;;10.60;99.90;;;;;;5056298;28;20208;-76
2022/05/30 03:53:08;;;;;;;4.37;2.33;;;10.60;99.90;;;;;;5021921;28;20189;-73
2022/05/30 03:55:39;;;;;;;3.20;2.20;;;10.50;99.90;;;;;;5019827;28;20204;-76
2022/05/30 03:58:05;;;;;;;4.87;2.40;;;10.50;99.90;;;;;;5020572;28;20184;-75
2022/05/30 04:00:38;;;;;;;3.60;2.40;;;10.40;99.90;;;;;;5039139;28;20232;-76
2022/05/30 04:03:04;;;;;;;2.83;2.13;;;10.40;99.90;;;;;;5056038;28;20201;-75
2022/05/30 04:05:29;;;;;;;4.57;2.23;;;10.40;99.90;;;;;;5039127;28;20213;-74
2022/05/30 04:07:55;;;;;;;3.70;2.40;;;10.40;99.90;;;;;;5039136;28;20180;-76
2022/05/30 04:10:21;;;;;;;3.97;2.63;;;10.40;99.90;;;;;;5056151;28;20198;-76
2022/05/30 04:12:50;;;;;;;4.30;2.30;;;10.40;99.90;;;;;;5056121;28;20178;-76
2022/05/30 04:15:22;;;;;;;3.10;2.37;;;10.30;99.90;;;;;;5055855;28;20189;-77
2022/05/30 04:17:48;;;;;;;3.67;2.70;;;10.30;99.90;;;;;;5036883;28;20185;-76
2022/05/30 04:20:14;;;;;;;3.20;2.73;;;10.30;99.90;;;;;;5019305;28;20274;-75
2022/05/30 04:22:45;;;;;;;3.37;2.57;;;10.30;99.90;;;;;;5028715;28;20272;-75
2022/05/30 04:25:11;;;;;;;3.27;2.63;;;10.30;99.90;;;;;;5038953;28;20506;-76
2022/05/30 04:27:37;;;;;;;3.70;2.80;;;10.30;99.90;;;;;;5055563;28;20223;-76
2022/05/30 04:30:09;;;;;;;4.30;2.70;;;10.30;99.90;;;;;;5055474;28;20197;-76
2022/05/30 04:32:36;;;;;;;3.47;2.60;;;10.30;99.90;;;;;;5032293;28;20188;-76
2022/05/30 04:35:03;;;;;;;3.67;2.83;;;10.30;99.90;;;;;;5019255;28;20204;-76
2022/05/30 04:37:31;;;;;;;4.40;3.10;;;10.40;99.90;;;;;;5037307;28;20284;-76
2022/05/30 04:39:59;;;;;;;4.03;2.93;;;10.40;99.90;;;;;;5054029;28;20185;-76
2022/05/30 04:42:27;;;;;;;3.17;2.80;;;10.50;99.90;;;;;;5038493;28;20197;-76
2022/05/30 04:44:53;;;;;;;4.73;3.40;;;10.50;99.90;;;;;;5038836;28;20211;-73
2022/05/30 04:47:19;;;;;;;4.57;3.10;;;10.50;99.90;;;;;;5038506;28;20235;-76
2022/05/30 04:49:46;;;;;;;4.57;3.43;;;10.60;99.90;;;;;;5038290;28;20223;-77
2022/05/30 04:52:15;;;;;;;3.83;3.43;;;10.70;99.90;;;;;;5054835;28;20197;-75
2022/05/30 04:54:41;;;;;;;3.97;3.13;;;10.70;99.90;;;;;;5035389;28;20169;-76
2022/05/30 04:57:07;;;;;;;4.70;3.50;;;10.70;99.90;;;;;;5038268;28;20212;-75
2022/05/30 04:59:33;;;;;;;3.80;3.27;;;10.80;99.90;;;;;;5038464;28;20184;-75
2022/05/30 05:02:01;;;;;;;5.30;3.30;;;10.80;99.90;;;;;;5038517;28;20185;-76
2022/05/30 05:04:26;;;;;;;5.10;3.63;;;10.90;99.90;;;;;;5038182;28;20177;-75
2022/05/30 05:06:55;;;;;;;3.60;3.03;;;10.90;99.90;;;;;;5038142;28;20207;-77
2022/05/30 05:09:48;;;;;;;3.83;3.00;;;11.00;99.90;;;;;;5054738;28;20205;-74
2022/05/30 05:12:14;;;;;;;4.10;2.97;;;11.00;99.90;;;;;;5043822;28;20205;-77
2022/05/30 05:14:40;;;;;;;4.70;3.13;;;11.10;99.90;;;;;;5054427;28;20193;-76
2022/05/30 05:17:11;;;;;;;3.97;3.03;;;11.20;99.90;;;;;;5034465;28;20174;-76
2022/05/30 05:19:38;;;;;;;5.93;3.10;;;11.20;99.90;;;;;;5018474;28;20177;-76
2022/05/30 05:22:05;;;;;;;4.77;3.13;;;11.30;99.90;;;;;;5037637;28;20200;-76
2022/05/30 05:24:35;;;;;;;4.53;3.17;;;11.40;99.90;;;;;;5054250;28;20191;-76
2022/05/30 05:27:01;;;;;;;4.97;2.67;;;11.40;99.90;;;;;;5036913;28;20201;-75
2022/05/30 05:29:26;;;;;;;3.95;2.70;;;11.50;99.90;;;;;;5022564;28;20197;-74
2022/05/30 05:31:52;;;;;;;4.13;2.70;;;11.60;99.90;;;;;;5034466;28;20197;-74
2022/05/30 05:34:18;;;;;;;4.53;2.90;;;11.70;99.90;;;;;;5038073;28;20197;-77
2022/05/30 05:36:46;;;;;;;4.32;3.25;;;11.70;99.90;;;;;;5037553;28;20272;-75
2022/05/30 05:39:13;;;;;;;4.38;3.08;;;11.80;99.90;;;;;;5037048;28;20201;-75
2022/05/30 05:41:44;;;;;;;5.18;2.70;;;11.80;99.90;;;;;;5037709;28;20219;-76
2022/05/30 05:44:10;;;;;;;7.70;2.83;;;12.00;99.90;;;;;;5020276;28;20229;-76
2022/05/30 05:46:35;;;;;;;5.90;2.70;;;12.00;99.90;;;;;;5018083;28;20294;-76
2022/05/30 05:49:03;;;;;;;4.30;2.63;;;12.10;99.90;;;;;;5036311;28;20212;-75
2022/05/30 05:51:31;;;;;;;3.30;2.53;;;12.10;99.90;;;;;;5035617;28;20169;-76
2022/05/30 05:53:57;;;;;;;3.28;2.20;;;12.10;99.90;;;;;;5017392;28;20194;-74
2022/05/30 05:56:31;;;;;;;3.40;2.47;;;12.20;99.90;;;;;;5034028;28;20166;-76
2022/05/30 05:58:59;;;;;;;3.25;2.50;;;12.20;99.90;;;;;;5017278;28;20433;-75
2022/05/30 06:01:30;;;;;;;3.33;2.40;;;12.30;99.90;;;;;;5030762;28;20193;-77
2022/05/30 06:03:58;;;;;;;4.53;2.55;;;12.30;99.90;;;;;;5034968;28;20235;-77
2022/05/30 06:06:26;;;;;;;4.38;2.30;;;12.40;99.90;;;;;;5048733;28;20196;-75
2022/05/30 06:08:56;;;;;;;2.55;2.17;;;12.40;99.90;;;;;;5041046;28;20196;-76
2022/05/30 06:11:25;;;;;;;2.75;2.00;;;12.50;99.90;;;;;;5036921;28;20189;-77
2022/05/30 06:13:51;;;;;;;3.50;2.28;;;12.50;99.90;;;;;;5037423;28;20179;-77
2022/05/30 06:16:23;;;;;;;5.43;2.47;;;12.60;99.90;;;;;;5036550;28;20284;-78
2022/05/30 06:18:51;;;;;;;3.70;2.30;;;12.60;99.90;;;;;;5053774;28;20173;-77
2022/05/30 06:21:17;;;;;;;3.58;2.75;;;12.70;99.90;;;;;;5037637;28;20251;-77
2022/05/30 06:23:45;;;;;;;4.47;2.08;;;12.70;99.90;;;;;;5022320;28;20184;-79
2022/05/30 06:26:11;;;;;;;6.15;2.67;;;12.80;99.90;;;;;;5017943;28;20216;-76
2022/05/30 06:28:38;;;;;;;4.68;2.47;;;12.90;99.90;;;;;;5017569;28;20185;-76
2022/05/30 06:31:16;;;;;;;2.60;2.17;;;12.90;99.90;;;;;;5017469;28;20209;-77
2022/05/30 06:33:42;;;;;;;7.63;2.85;;;12.90;99.90;;;;;;5017508;28;20205;-76
2022/05/30 06:36:12;;;;;;;4.65;2.67;;;13.00;99.90;;;;;;5028992;28;20213;-76
2022/05/30 06:38:43;;;;;;;4.63;2.70;;;13.00;99.90;;;;;;5037245;28;20196;-77
2022/05/30 06:41:16;;;;;;;4.70;2.42;;;13.00;99.90;;;;;;5036733;28;20193;-76
2022/05/30 06:43:43;;;;;;;4.80;2.78;;;13.10;99.90;;;;;;5033549;28;20248;-76
2022/05/30 06:46:12;;;;;;;5.43;2.90;;;13.10;99.90;;;;;;5033828;28;20230;-76
2022/05/30 06:48:40;;;;;;;5.05;2.80;;;13.10;99.90;;;;;;5017252;28;20224;-76
2022/05/30 06:51:13;;;;;;;5.38;2.70;;;13.20;99.90;;;;;;5028740;28;20270;-77
2022/05/30 06:53:43;;;;;;;3.17;2.33;;;13.20;99.90;;;;;;5053674;28;20208;-75
2022/05/30 06:56:23;;;;;;;5.00;2.78;;;13.20;99.90;;;;;;5053515;28;20177;-70
2022/05/30 06:58:52;;;;;;;5.60;2.80;;;13.20;99.90;;;;;;5053573;28;20185;-77
2022/05/30 07:01:31;;;;;;;4.57;2.90;;;13.20;99.90;;;;;;5053465;28;20421;-75
2022/05/30 07:03:57;;;;;;;5.32;2.92;;;13.30;99.90;;;;;;5055164;28;20244;-76
2022/05/30 07:06:32;;;;;;;5.55;3.10;;;13.30;99.90;;;;;;5057205;28;20291;-77
2022/05/30 07:08:59;;;;;;;5.95;2.97;;;13.30;99.90;;;;;;5055352;28;20188;-76
2022/05/30 07:11:27;;;;;;;5.80;3.30;;;13.30;99.90;;;;;;5040164;28;20177;-76
2022/05/30 07:13:53;;;;;;;4.78;3.10;;;13.30;99.90;;;;;;5040214;28;20177;-76
2022/05/30 07:16:22;;;;;;;4.78;2.75;;;13.30;99.90;;;;;;5040620;28;20178;-76
2022/05/30 07:18:52;;;;;;;7.00;3.20;;;13.30;99.90;;;;;;5040514;28;20274;-76
2022/05/30 07:21:21;;;;;;;5.88;3.28;;;13.40;99.90;;;;;;5030379;28;20186;-75
2022/05/30 07:23:46;;;;;;;4.55;3.00;;;13.40;99.90;;;;;;5032441;28;20198;-77
2022/05/30 07:26:16;;;;;;;6.53;3.40;;;13.40;99.90;;;;;;5040406;28;20205;-77
2022/05/30 07:28:42;;;;;;;5.80;3.05;;;13.50;99.90;;;;;;5039671;28;20193;-76
2022/05/30 07:31:20;;;;;;;6.15;3.38;;;13.50;99.90;;;;;;5039716;28;20239;-77
2022/05/30 07:33:48;;;;;;;4.85;3.33;;;13.50;99.90;;;;;;5039875;28;20201;-74
2022/05/30 07:36:28;;;;;;;4.80;2.95;;;13.50;99.90;;;;;;5039945;28;20180;-75
2022/05/30 07:38:54;;;;;;;6.28;3.50;;;13.50;99.90;;;;;;5057303;28;20208;-76
2022/05/30 07:41:25;;;;;;;5.60;3.05;;;13.60;99.90;;;;;;5039514;28;20177;-76
2022/05/30 07:43:51;;;;;;;4.82;2.97;;;13.60;99.90;;;;;;5039368;28;20201;-76
2022/05/30 07:46:18;;;;;;;6.30;3.17;;;13.60;99.90;;;;;;5056756;28;20193;-74
2022/05/30 07:48:46;;;;;;;6.65;3.05;;;13.60;99.90;;;;;;5039990;28;20212;-75
2022/05/30 07:51:14;;;;;;;5.95;3.33;;;13.60;99.90;;;;;;5039920;28;20177;-76
2022/05/30 07:53:42;;;;;;;10.70;4.70;;;13.60;99.90;;;;;;5057466;28;20196;-76
2022/05/30 07:56:11;;;;;;;6.90;4.28;;;13.60;99.90;;;;;;5058904;28;20171;-76
2022/05/30 07:58:36;;;;;;;11.57;5.57;;;13.50;99.90;;;;;;5056938;28;20209;-76
2022/05/30 08:01:03;;;;;;;6.10;4.80;;;13.60;99.90;;;;;;5052174;28;20231;-75
2022/05/30 08:03:32;;;;;;;6.72;4.45;;;13.50;99.90;;;;;;5019891;28;20181;-77
2022/05/30 08:06:12;;;;;;;6.90;4.53;;;13.50;99.90;;;;;;5019704;28;20225;-75
2022/05/30 08:08:42;;;;;;;7.22;4.63;;;13.50;99.90;;;;;;5019757;28;20227;-77
2022/05/30 08:11:09;;;;;;;6.32;4.72;;;13.50;99.90;;;;;;5019769;28;20177;-75
2022/05/30 08:13:37;;;;;;;5.82;4.20;;;13.50;99.90;;;;;;5039041;28;20182;-76
2022/05/30 08:16:04;;;;;;;4.85;4.30;;;13.50;99.90;;;;;;5054853;28;20178;-75
2022/05/30 08:18:33;;;;;;;5.22;4.05;;;13.50;99.90;;;;;;5055928;28;20189;-75
2022/05/30 08:21:01;;;;;;;6.93;4.38;;;13.40;99.90;;;;;;5056049;28;20244;-76
2022/05/30 08:23:27;;;;;;;7.53;4.38;;;13.40;99.90;;;;;;5042423;28;20238;-77
2022/05/30 08:25:53;;;;;;;5.03;4.53;;;13.40;99.90;;;;;;5038880;28;20205;-76
2022/05/30 08:28:21;;;;;;;5.63;4.75;;;13.50;99.90;;;;;;5038789;28;20188;-76
2022/05/30 08:30:49;;;;;;;5.50;4.75;;;13.50;99.90;;;;;;5038988;28;20205;-77
2022/05/30 08:33:17;;;;;;;9.65;5.35;;;13.50;99.90;;;;;;5046702;28;20169;-77
2022/05/30 08:35:47;;;;;;;6.88;5.13;;;13.60;99.90;;;;;;5055570;28;20263;-76
2022/05/30 08:38:14;;;;;;;5.47;4.88;;;13.60;99.90;;;;;;5055696;28;20315;-76
2022/05/30 08:43:34;;;;;;;7.95;5.30;;;13.70;99.90;;;;;;5056263;28;20245;-77
2022/05/30 08:46:23;;;;;;;8.55;5.35;;;13.60;99.90;;;;;;5055384;28;20241;-77
2022/05/30 08:48:58;;;;;;;8.80;4.82;;;13.70;99.90;;;;;;5055151;28;20173;-77
2022/05/30 08:51:47;;;;;;;7.82;5.13;;;13.60;99.90;;;;;;5055465;28;20196;-76
2022/05/30 08:54:31;;;;;;;6.18;4.82;;;13.70;99.90;;;;;;5038460;28;20221;-77
2022/05/30 08:57:04;;;;;;;5.70;4.82;;;13.70;99.90;;;;;;5038415;28;20192;-75
2022/05/30 08:59:39;;;;;;;7.20;4.55;;;13.80;99.90;;;;;;5038459;28;20187;-76
2022/05/30 09:02:43;;;;;;;6.30;4.95;;;13.80;99.90;;;;;;5038131;28;20315;-77
2022/05/30 09:05:20;;;;;;;6.57;4.05;;;13.90;99.90;;;;;;5026256;28;20181;-77
2022/05/30 09:07:55;;;;;;;7.07;5.47;;;13.90;99.90;;;;;;5043101;28;20186;-77
2022/05/30 09:10:39;;;;;;;5.15;4.65;;;14.00;99.90;;;;;;5041947;28;20177;-71
2022/05/30 09:13:25;;;;;;;5.15;4.53;;;14.00;99.90;;;;;;5074203;28;20205;-68
2022/05/30 09:16:03;;;;;;;8.65;4.93;;;14.00;99.90;;;;;;5045681;28;20185;-71
2022/05/30 09:18:54;;;;;;;9.00;4.95;;;14.10;99.90;;;;;;5019994;28;20273;-75
2022/05/30 09:21:22;;;;;;;9.38;5.55;;;14.10;99.90;;;;;;5053181;28;20234;-77
2022/05/30 09:23:50;;;;;;;7.65;5.78;;;14.20;99.90;;;;;;5040692;28;20230;-77
2022/05/30 09:26:22;;;;;;;9.70;6.03;;;14.30;99.90;;;;;;5037168;28;20208;-76
2022/05/30 09:28:50;;;;;;;6.82;5.30;;;14.30;99.90;;;;;;5054575;28;20204;-76
2022/05/30 09:31:21;;;;;;;9.43;5.75;;;14.30;99.90;;;;;;5035910;28;20177;-74
2022/05/30 09:33:56;;;;;;;8.23;5.57;;;14.30;99.90;;;;;;5024926;28;20189;-76
2022/05/30 09:36:34;;;;;;;9.38;5.85;;;14.40;99.90;;;;;;5037508;28;20170;-78
2022/05/30 09:39:03;;;;;;;9.05;5.70;;;14.50;99.90;;;;;;5017760;28;20169;-83
2022/05/30 09:41:46;;;;;;;8.32;5.95;;;14.50;99.90;;;;;;5042631;28;20188;-81
2022/05/30 09:44:19;;;;;;;7.70;5.72;;;14.60;99.90;;;;;;5037294;28;20279;-80
2022/05/30 09:47:13;;;;;;;7.10;5.55;;;14.70;99.90;;;;;;5037415;28;20215;-81
2022/05/30 09:49:53;;;;;;;6.20;5.57;;;14.80;99.90;;;;;;5034199;28;20232;-81
2022/05/30 09:52:25;;;;;;;7.47;5.80;;;14.90;99.90;;;;;;5034799;28;20259;-78
2022/05/30 09:54:54;;;;;;;6.13;5.00;;;15.00;99.90;;;;;;5037391;28;20256;-81
2022/05/30 09:57:29;;;;;;;5.90;4.70;;;15.00;99.90;;;;;;5037319;28;20177;-80
2022/05/30 10:00:05;;;;;;;5.90;4.72;;;15.10;99.90;;;;;;5037673;28;20175;-81
2022/05/30 10:02:39;;;;;;;5.32;4.22;;;15.20;99.90;;;;;;5037524;28;20255;-81
2022/05/30 10:05:25;;;;;;;4.05;3.67;;;15.30;99.90;;;;;;5036327;28;20211;-80
2022/05/30 10:07:54;;;;;;;4.05;3.28;;;15.40;99.90;;;;;;5054083;28;20161;-80
2022/05/30 10:10:29;;;;;;;4.40;3.30;;;15.50;99.90;;;;;;5054034;28;20173;-81
2022/05/30 10:13:09;;;;;;;4.55;3.38;;;15.60;99.90;;;;;;5053943;28;20169;-80
2022/05/30 10:15:35;;;;;;;3.22;2.65;;;15.60;99.90;;;;;;5051083;28;20177;-81
2022/05/30 10:18:13;;;;;;;4.90;3.20;;;15.80;99.90;;;;;;5017397;28;20184;-81
2022/05/30 10:20:38;;;;;;;5.35;3.10;;;15.80;99.90;;;;;;5034611;28;20205;-80
2022/05/30 10:28:14;;;;;;;3.22;2.55;;;16.00;99.90;;;;;;5054361;28;20203;-79
2022/05/30 10:29:40;;;;;;;3.20;2.40;;;16.10;99.90;;;;;;5036366;28;20198;-81
2022/05/30 10:32:34;;;;;;;2.88;2.38;;;16.30;99.90;;;;;;5036984;28;20168;-79
2022/05/30 10:35:08;;;;;;;2.22;1.77;;;16.30;99.90;;;;;;5027624;28;20209;-81
2022/05/30 10:37:45;;;;;;;4.38;2.42;;;16.40;99.90;;;;;;5023407;28;20178;-81
2022/05/30 10:40:23;;;;;;;2.83;2.20;;;16.50;99.90;;;;;;5044220;28;20200;-81
2022/05/30 10:43:16;;;;;;;3.90;2.30;;;16.60;99.90;;;;;;5041114;28;20463;-80
2022/05/30 10:45:54;;;;;;;4.22;2.45;;;16.70;99.90;;;;;;5037693;28;20293;-80
2022/05/30 10:48:39;;;;;;;3.90;2.65;;;16.80;99.90;;;;;;5038020;28;20314;-80
2022/05/30 10:51:07;;;;;;;6.43;2.72;;;16.90;99.90;;;;;;5056796;28;20231;-80
2022/05/30 10:53:44;;;;;;;4.95;2.30;;;16.90;99.90;;;;;;5040982;28;20169;-80
2022/05/30 10:56:31;;;;;;;4.88;2.25;;;16.90;99.90;;;;;;5037700;28;20197;-80
2022/05/30 10:59:26;;;;;;;3.28;2.28;;;17.00;99.90;;;;;;5027686;28;20236;-81
2022/05/30 11:02:22;;;;;;;3.15;2.10;;;17.00;99.90;;;;;;5040748;28;20454;-80
2022/05/30 11:04:59;;;;;;;3.00;2.10;;;17.10;99.90;;;;;;5040621;28;20173;-77
2022/05/30 11:07:40;;;;;;;3.15;1.98;;;17.10;99.90;;;;;;5040602;28;20184;-81
2022/05/30 11:10:21;;;;;;;3.22;2.15;;;17.10;99.90;;;;;;5040607;28;20241;-81
2022/05/30 11:12:57;;;;;;;2.17;1.73;;;17.20;99.90;;;;;;5057498;28;20193;-80
2022/05/30 11:15:27;;;;;;;2.45;1.80;;;17.20;99.90;;;;;;5040061;28;20208;-78
2022/05/30 11:18:07;;;;;;;2.40;1.70;;;17.20;99.90;;;;;;5040574;28;20188;-81
2022/05/30 11:20:48;;;;;;;2.80;1.60;;;17.30;99.90;;;;;;5056860;28;20185;-81
2022/05/30 11:23:16;;;;;;;2.53;1.50;;;17.30;99.90;;;;;;5040330;28;20173;-82
2022/05/30 11:25:50;;;;;;;3.35;1.60;;;17.30;99.90;;;;;;5034042;28;20225;-82
2022/05/30 11:28:35;;;;;;;2.25;1.50;;;17.40;99.90;;;;;;5020632;28;20170;-81
2022/05/30 11:31:26;;;;;;;2.33;1.63;;;17.40;99.90;;;;;;5053712;28;20357;-81
2022/05/30 11:34:06;;;;;;;3.05;1.70;;;17.50;99.90;;;;;;5056882;28;20205;-81
2022/05/30 11:36:40;;;;;;;2.25;1.48;;;17.60;99.90;;;;;;5040060;28;20185;-79
2022/05/30 11:39:26;;;;;;;2.05;1.55;;;17.70;99.90;;;;;;5039997;28;20177;-81
2022/05/30 11:42:09;;;;;;;2.22;1.70;;;17.90;99.90;;;;;;5039668;28;20174;-79
2022/05/30 11:45:06;;;;;;;2.55;1.83;;;18.00;99.90;;;;;;5039755;28;20278;-81
2022/05/30 11:47:41;;;;;;;2.28;1.70;;;18.20;99.90;;;;;;5039878;28;20287;-81
2022/05/30 11:50:31;;;;;;;3.97;2.15;;;18.50;99.90;;;;;;5039925;28;20169;-81
2022/05/30 11:53:05;;;;;;;2.53;2.00;;;18.70;99.90;;;;;;5036650;28;20197;-81
2022/05/30 11:55:48;;;;;;;3.05;2.58;;;18.80;99.90;;;;;;5020033;28;20188;-81
2022/05/30 11:58:44;;;;;;;2.90;2.40;;;18.90;99.90;;;;;;5029277;28;20209;-80
2022/05/30 12:01:13;;;;;;;3.13;2.38;;;19.00;99.90;;;;;;5047637;28;20189;-79
2022/05/30 12:04:16;;;;;;;3.42;2.20;;;19.10;99.90;;;;;;5019878;28;20201;-78
2022/05/30 12:07:00;;;;;;;2.97;2.00;;;19.10;99.90;;;;;;5036354;28;20197;-82
2022/05/30 12:09:45;;;;;;;3.13;2.53;;;19.10;99.90;;;;;;5039032;28;20188;-83
2022/05/30 12:12:17;;;;;;;2.53;2.22;;;19.10;99.90;;;;;;5039496;28;20183;-82
2022/05/30 12:15:01;;;;;;;5.13;2.42;;;19.10;99.90;;;;;;5022604;28;20196;-79
2022/05/30 12:24:18;;;;;;;3.53;2.35;;;19.10;99.90;;;;;;5049884;28;20220;-81
2022/05/30 12:26:53;;;;;;;2.97;2.15;;;19.00;99.90;;;;;;5019553;28;20208;-79
2022/05/30 12:29:37;;;;;;;3.85;2.40;;;18.90;99.90;;;;;;5035936;28;20197;-80
2022/05/30 12:32:09;;;;;;;3.60;2.67;;;18.90;99.90;;;;;;5043841;28;20240;-81
2022/05/30 12:37:44;;;;;;;4.80;3.10;;;18.90;99.90;;;;;;5044353;28;20177;-79
2022/05/30 12:40:21;;;;;;;4.22;3.10;;;18.90;99.90;;;;;;5039174;28;20314;-76
2022/05/30 12:43:08;;;;;;;4.13;2.95;;;18.90;99.90;;;;;;5038786;28;20259;-80
2022/05/30 12:45:43;;;;;;;3.25;2.67;;;19.00;99.90;;;;;;5039102;28;20229;-81
2022/05/30 12:48:29;;;;;;;3.90;3.22;;;19.20;99.90;;;;;;5055195;28;20176;-79
2022/05/30 12:50:54;;;;;;;4.13;2.97;;;19.30;99.90;;;;;;5038908;28;20197;-82
2022/05/30 12:53:25;;;;;;;7.68;3.17;;;19.40;99.90;;;;;;5038556;28;20280;-82
2022/05/30 12:55:55;;;;;;;7.07;3.58;;;19.40;99.90;;;;;;5035508;28;20202;-84
2022/05/30 12:58:33;;;;;;;3.88;3.08;;;19.50;99.90;;;;;;5035676;28;20181;-81
2022/05/30 13:01:19;;;;;;;3.25;2.63;;;19.60;99.90;;;;;;5036945;28;20217;-82
2022/05/30 13:04:23;;;;;;;4.40;3.10;;;19.70;99.90;;;;;;5055837;28;20180;-83
2022/05/30 13:06:58;;;;;;;3.10;2.58;;;19.70;99.90;;;;;;5037052;28;20209;-81
2022/05/30 13:09:28;;;;;;;3.63;2.80;;;19.60;99.90;;;;;;5038955;28;20196;-81
2022/05/30 13:12:14;;;;;;;4.45;3.10;;;19.60;99.90;;;;;;5039269;28;20173;-81
2022/05/30 13:14:49;;;;;;;5.75;3.22;;;19.50;99.90;;;;;;5039110;28;20168;-81
2022/05/30 13:17:23;;;;;;;5.35;3.20;;;19.40;99.90;;;;;;5039637;28;20169;-81
2022/05/30 13:19:58;;;;;;;4.72;2.90;;;19.30;99.90;;;;;;5040883;28;20181;-82
2022/05/30 13:22:48;;;;;;;3.58;2.70;;;19.20;99.90;;;;;;5038889;28;20180;-82
2022/05/30 13:25:33;;;;;;;3.85;2.83;;;19.10;99.90;;;;;;5039415;28;20170;-84
2022/05/30 13:28:12;;;;;;;4.35;2.90;;;19.00;99.90;;;;;;5039225;28;20161;-82
2022/05/30 13:30:41;;;;;;;3.92;3.00;;;19.00;99.90;;;;;;5039027;28;20184;-82
2022/05/30 13:33:30;;;;;;;4.32;3.30;;;19.00;99.90;;;;;;5056429;28;20173;-79
2022/05/30 13:36:03;;;;;;;5.00;3.40;;;19.00;99.90;;;;;;5053988;28;20265;-78
2022/05/30 13:38:39;;;;;;;4.40;3.00;;;19.00;99.90;;;;;;5041861;28;20165;-84